Latest Coastal Weather Observations for Bunbury

IDW60701

Issued at 10:33 am WST Tuesday 17 January 2017 (issued every 10 minutes, with the page automatically refreshed every 10 minutes)

About coastal observations | Map of coastal stations | Coastal observations for WA | Marine services | Other Formats
Station Details ID: 009965 Name: BUNBURY Lat: -33.36 Lon: 115.64 Height: 5.2 m
Data from the previous 72 hours. | See also: Recent months at Bunbury
Date/Time
WST
Temp
°C
Wind Pressure Rain since
9am
mm
Weather Cloud Vis
km
Sea
Height
m
Swell
Dir  Spd
kts
Gust
kts
hPa Trend Height
m
Period
s
Dir
17/10:00am 21.5 E 10 15 1016.7 - 0.0 - - - - - - -
17/09:30am 20.0 SE 12 16 1016.9 - 0.0 - - - - - - -
17/09:00am 19.6 SE 11 16 1017.0 - 0.0 - - - - - - -
17/08:30am 18.0 SE 14 20 1017.5 - 0.0 - - - - - - -
17/08:00am 17.4 SE 9 13 1017.7 - 0.0 - - - - - - -
17/07:30am 16.1 SE 7 10 1017.9 - 0.0 - - - - - - -
17/07:00am 14.8 SE 5 8 1017.7 - 0.0 - - - - - - -
17/06:30am 13.3 SSE 6 8 1017.6 - 0.0 - - - - - - -
17/06:00am 12.3 SSE 5 7 1017.4 - 0.0 - - - - - - -
17/05:30am 11.8 SSE 5 7 1016.9 - 0.0 - - - - - - -
17/05:00am 11.7 SSE 4 5 1016.6 - 0.0 - - - - - - -
17/04:30am 11.9 SE 4 6 1016.2 - 0.0 - - - - - - -
17/04:00am 12.7 SE 5 8 1015.9 - 0.0 - - - - - - -
17/03:30am 13.0 SSE 6 8 1015.8 - 0.0 - - - - - - -
17/03:00am 13.4 SSE 7 11 1015.6 - 0.0 - - - - - - -
17/02:30am 13.5 SSE 5 8 1015.3 - 0.0 - - - - - - -
17/02:00am 13.9 SSE 6 10 1015.0 - 0.0 - - - - - - -
17/01:30am 14.4 SSE 6 9 1014.9 - 0.0 - - - - - - -
17/01:00am 14.7 SSE 6 10 1014.7 - 0.0 - - - - - - -
17/12:30am 15.2 SSE 7 10 1014.5 - 0.0 - - - - - - -
17/12:00am 15.5 SSE 8 13 1014.6 - 0.0 - - - - - - -
 
Date/Time
WST
Temp
°C
Wind Pressure Rain since
9am
mm
Weather Cloud Vis
km
Sea
Height
m
Swell
Dir  Spd
kts
Gust
kts
hPa Trend Height
m
Period
s
Dir
16/11:30pm 15.8 SSE 9 13 1014.5 - 0.0 - - - - - - -
16/11:00pm 16.0 SSE 9 15 1014.4 - 0.0 - - - - - - -
16/10:30pm 16.1 SSE 9 14 1014.4 - 0.0 - - - - - - -
16/10:00pm 16.6 S 9 13 1014.1 - 0.0 - - - - - - -
16/09:30pm 16.9 S 12 17 1013.7 - 0.0 - - - - - - -
16/09:00pm 17.4 S 12 18 1013.2 - 0.0 - - - - - - -
16/08:30pm 17.9 S 12 18 1012.9 - 0.0 - - - - - - -
16/08:00pm 18.8 S 13 18 1012.4 - 0.0 - - - - - - -
16/07:30pm 19.6 S 12 20 1012.0 - 0.0 - - - - - - -
16/07:00pm 20.6 S 14 18 1011.5 - 0.0 - - - - - - -
16/06:30pm 21.3 S 13 20 1011.3 - 0.0 - - - - - - -
16/06:00pm 22.5 S 14 21 1011.0 - 0.0 - - - - - - -
16/05:30pm 23.3 S 13 23 1010.6 - 0.0 - - - - - - -
16/05:00pm 24.2 S 13 23 1010.4 - 0.0 - - - - - - -
16/04:30pm 24.9 S 12 18 1010.4 - 0.0 - - - - - - -
16/04:00pm 25.4 SSE 11 16 1010.4 - 0.0 - - - - - - -
16/03:30pm 25.5 S 12 19 1010.6 - 0.0 - - - - - - -
16/03:00pm 25.8 S 14 22 1010.5 - 0.0 - - - - - - -
16/02:30pm 25.7 S 12 17 1010.5 - 0.0 - - - - - - -
16/02:00pm 26.0 SSW 11 16 1010.5 - 0.0 - - - - - - -
16/01:30pm 26.2 SSW 12 20 1010.5 - 0.0 - - - - - - -
16/01:00pm 25.1 WSW 12 20 1010.8 - 0.0 - - - - - - -
16/12:30pm 24.6 WSW 14 18 1011.1 - 0.0 - - - - - - -
16/12:00pm 25.2 SSW 11 19 1011.1 - 0.0 - - - - - - -
16/11:30am 25.4 S 13 22 1011.3 - 0.0 - - - - - - -
16/11:00am 24.3 S 11 17 1011.3 - 0.0 - - - - - - -
16/10:30am 23.3 SSW 13 18 1011.3 - 0.0 - - - - - - -
16/10:00am 23.8 S 8 14 1011.5 - 0.0 - - - - - - -
16/09:30am 22.4 S 10 16 1011.5 - 0.0 - - - - - - -
16/09:00am 21.8 S 7 12 1011.6 - 0.0 - - - - - - -
16/08:30am 21.0 SSE 6 10 1011.7 - 0.0 - - - - - - -
16/08:00am 19.3 SSE 9 14 1011.8 - 0.0 - - - - - - -
16/07:30am 18.2 S 7 11 1011.8 - 0.0 - - - - - - -
16/07:00am 16.6 SSW 3 5 1011.9 - 0.0 - - - - - - -
16/06:30am 15.1 SSW 3 4 1011.5 - 0.0 - - - - - - -
16/06:00am 13.9 SSW 2 3 1011.2 - 0.0 - - - - - - -
16/05:30am 13.9 S 4 4 1011.0 - 0.0 - - - - - - -
16/05:00am 14.4 S 4 5 1010.7 - 0.0 - - - - - - -
16/04:30am 14.9 S 3 4 1010.4 - 0.0 - - - - - - -
16/04:00am 14.7 S 3 5 1010.2 - 0.0 - - - - - - -
16/03:30am 14.4 SSW 3 4 1010.0 - 0.0 - - - - - - -
16/03:00am 13.2 SSW 2 2 1009.9 - 0.0 - - - - - - -
16/02:30am 13.3 SSE 1 2 1010.0 - 0.0 - - - - - - -
16/02:00am 13.6 S 2 3 1010.0 - 0.0 - - - - - - -
16/01:30am 14.9 S 2 3 1010.0 - 0.0 - - - - - - -
16/01:00am 15.6 SSE 3 4 1009.8 - 0.0 - - - - - - -
16/12:30am 16.2 SE 5 7 1009.7 - 0.0 - - - - - - -
16/12:00am 16.6 SSE 8 14 1009.7 - 0.0 - - - - - - -
 
Date/Time
WST
Temp
°C
Wind Pressure Rain since
9am
mm
Weather Cloud Vis
km
Sea
Height
m
Swell
Dir  Spd
kts
Gust
kts
hPa Trend Height
m
Period
s
Dir
15/11:30pm 16.2 S 5 7 1010.0 - 0.0 - - - - - - -
15/11:00pm 16.6 S 5 8 1010.0 - 0.0 - - - - - - -
15/10:30pm 17.3 S 6 9 1009.8 - 0.0 - - - - - - -
15/10:00pm 17.6 S 6 8 1009.7 - 0.0 - - - - - - -
15/09:30pm 18.1 S 8 11 1009.6 - 0.0 - - - - - - -
15/09:00pm 18.5 S 8 11 1009.6 - 0.0 - - - - - - -
15/08:30pm 19.3 S 9 14 1009.3 - 0.0 - - - - - - -
15/08:00pm 19.9 S 11 16 1009.0 - 0.0 - - - - - - -
15/07:30pm 21.3 S 13 19 1008.6 - 0.0 - - - - - - -
15/07:00pm 23.1 SSW 13 17 1008.0 - 0.0 - - - - - - -
15/06:30pm 25.1 S 15 22 1007.4 - 0.0 - - - - - - -
15/06:00pm 27.3 SSW 15 21 1006.8 - 0.0 - - - - - - -
15/05:30pm 29.8 SW 12 20 1006.2 - 0.0 - - - - - - -
15/05:00pm 27.9 WSW 11 19 1006.1 - 0.0 - - - - - - -
15/04:30pm 28.0 WSW 9 15 1006.3 - 0.0 - - - - - - -
15/04:00pm 28.5 WSW 10 17 1006.5 - 0.0 - - - - - - -
15/03:30pm 28.8 SW 10 14 1006.6 - 0.0 - - - - - - -
15/03:00pm 28.6 SW 11 15 1006.9 - 0.0 - - - - - - -
15/02:30pm 29.9 WSW 10 14 1007.2 - 0.0 - - - - - - -
15/02:00pm 27.7 WSW 10 13 1007.5 - 0.0 - - - - - - -
15/01:30pm 27.1 WSW 9 13 1007.7 - 0.0 - - - - - - -
15/01:00pm 28.7 WSW 11 16 1007.8 - 0.0 - - - - - - -
15/12:30pm 29.3 WSW 9 13 1008.0 - 0.0 - - - - - - -
15/12:00pm 28.3 SW 11 16 1008.1 - 0.0 - - - - - - -
15/11:30am 27.2 WSW 11 16 1008.3 - 0.0 - - - - - - -
15/11:00am 26.9 WSW 9 12 1008.6 - 0.0 - - - - - - -
15/10:30am 29.5 WSW 4 8 1008.7 - 0.0 - - - - - - -
15/10:00am 28.5 SSE 4 5 1008.8 - 0.0 - - - - - - -
15/09:30am 26.6 SSE 4 8 1009.1 - 0.0 - - - - - - -
15/09:00am 25.3 SSE 7 9 1009.1 - 0.0 - - - - - - -
15/08:30am 23.3 SSE 7 9 1009.5 - 0.0 - - - - - - -
15/08:00am 21.9 SSE 7 10 1009.8 - 0.0 - - - - - - -
15/07:30am 19.7 SSE 9 12 1010.0 - 0.0 - - - - - - -
15/07:00am 17.9 SSE 7 12 1010.1 - 0.0 - - - - - - -
15/06:30am 16.9 SSE 5 6 1010.2 - 0.0 - - - - - - -
15/06:00am 15.7 S 5 6 1009.9 - 0.0 - - - - - - -
15/05:30am 15.4 S 4 5 1009.7 - 0.0 - - - - - - -
15/05:00am 15.6 S 5 7 1009.4 - 0.0 - - - - - - -
15/04:30am 15.7 S 5 7 1009.2 - 0.0 - - - - - - -
15/04:00am 15.8 S 4 6 1009.2 - 0.0 - - - - - - -
15/03:30am 16.0 SSW 5 7 1009.1 - 0.0 - - - - - - -
15/03:00am 16.5 SSW 6 7 1009.3 - 0.0 - - - - - - -
15/02:30am 17.0 SSW 5 6 1009.5 - 0.0 - - - - - - -
15/02:00am 17.3 SSW 6 7 1009.6 - 0.0 - - - - - - -
15/01:30am 18.0 SSW 6 8 1010.1 - 0.0 - - - - - - -
15/01:00am 17.8 SSW 5 6 1010.4 - 0.0 - - - - - - -
15/12:30am 18.4 SSW 5 7 1010.8 - 0.0 - - - - - - -
15/12:00am 18.7 SSW 5 5 1011.0 - 0.0 - - - - - - -
 
Date/Time
WST
Temp
°C
Wind Pressure Rain since
9am
mm
Weather Cloud Vis
km
Sea
Height
m
Swell
Dir  Spd
kts
Gust
kts
hPa Trend Height
m
Period
s
Dir
14/11:30pm 19.1 SSW 4 5 1011.1 - 0.0 - - - - - - -
14/11:00pm 19.8 SSW 4 6 1011.2 - 0.0 - - - - - - -
14/10:30pm 20.8 S 5 7 1011.2 - 0.0 - - - - - - -
14/10:00pm 21.6 S 5 7 1011.3 - 0.0 - - - - - - -
14/09:30pm 22.7 S 6 7 1011.2 - 0.0 - - - - - - -
14/09:00pm 23.5 S 5 7 1011.2 - 0.0 - - - - - - -
14/08:30pm 22.3 SSW 4 6 1011.1 - 0.0 - - - - - - -
14/08:00pm 22.9 SSW 5 7 1011.0 - 0.0 - - - - - - -
14/07:30pm 23.8 SSW 4 6 1011.0 - 0.0 - - - - - - -
14/07:00pm 25.1 SSW 4 5 1011.0 - 0.0 - - - - - - -
14/06:30pm 25.8 SW 6 8 1010.9 - 0.0 - - - - - - -
14/06:00pm 26.3 WSW 6 9 1010.9 - 0.0 - - - - - - -
14/05:30pm 27.1 WSW 7 9 1010.8 - 0.0 - - - - - - -
14/05:00pm 28.7 WSW 6 9 1010.8 - 0.0 - - - - - - -
14/04:30pm 28.8 SW 8 10 1011.1 - 0.0 - - - - - - -
14/04:00pm 29.5 WSW 8 10 1011.4 - 0.0 - - - - - - -
14/03:30pm 28.9 WSW 8 11 1011.8 - 0.0 - - - - - - -
14/03:00pm 29.5 WSW 8 11 1012.0 - 0.0 - - - - - - -
14/02:30pm 29.7 WSW 9 11 1012.3 - 0.0 - - - - - - -
14/02:00pm 29.5 WSW 8 10 1012.6 - 0.0 - - - - - - -
14/01:30pm 29.4 W 7 8 1012.8 - 0.0 - - - - - - -
14/01:00pm 28.8 WNW 7 9 1013.2 - 0.0 - - - - - - -
14/12:30pm 29.1 WSW 6 8 1013.4 - 0.0 - - - - - - -
14/12:00pm 28.5 W 6 9 1013.7 - 0.0 - - - - - - -
14/11:30am 28.6 W 5 8 1013.8 - 0.0 - - - - - - -
14/11:00am 28.7 S 3 5 1014.1 - 0.0 - - - - - - -

Other Formats:

Comma delimited format used in spreadsheet applications
http://www.bom.gov.au/fwo/IDW60701/IDW60701.94604.axf

JavaScript Object Notation format (JSON) in row-major order
http://www.bom.gov.au/fwo/IDW60701/IDW60701.94604.json